sensor_id;sensor_type;location;lat;lon;timestamp;P1;durP1;ratioP1;P2;durP2;ratioP2
434;SDS011;204;48.942;9.256;2022-10-14T00:01:11;17.35;;;16.45;;
434;SDS011;204;48.942;9.256;2022-10-14T00:03:38;16.40;;;15.43;;
434;SDS011;204;48.942;9.256;2022-10-14T00:06:05;18.50;;;17.60;;
434;SDS011;204;48.942;9.256;2022-10-14T00:08:36;19.58;;;18.15;;
434;SDS011;204;48.942;9.256;2022-10-14T00:11:03;19.97;;;18.97;;
434;SDS011;204;48.942;9.256;2022-10-14T00:13:30;17.15;;;16.25;;
434;SDS011;204;48.942;9.256;2022-10-14T00:15:56;22.20;;;17.80;;
434;SDS011;204;48.942;9.256;2022-10-14T00:18:21;18.20;;;16.13;;
434;SDS011;204;48.942;9.256;2022-10-14T00:20:56;22.03;;;17.73;;
434;SDS011;204;48.942;9.256;2022-10-14T00:23:23;17.83;;;16.92;;
434;SDS011;204;48.942;9.256;2022-10-14T00:25:49;20.25;;;17.08;;
434;SDS011;204;48.942;9.256;2022-10-14T00:28:15;22.43;;;17.50;;
434;SDS011;204;48.942;9.256;2022-10-14T00:30:41;21.70;;;18.80;;
434;SDS011;204;48.942;9.256;2022-10-14T00:33:06;20.27;;;19.13;;
434;SDS011;204;48.942;9.256;2022-10-14T00:35:32;20.33;;;18.67;;
434;SDS011;204;48.942;9.256;2022-10-14T00:37:58;18.40;;;17.50;;
434;SDS011;204;48.942;9.256;2022-10-14T00:40:26;20.40;;;19.38;;
434;SDS011;204;48.942;9.256;2022-10-14T00:42:52;23.45;;;17.48;;
434;SDS011;204;48.942;9.256;2022-10-14T00:45:19;19.10;;;18.00;;
434;SDS011;204;48.942;9.256;2022-10-14T00:47:46;17.75;;;16.88;;
434;SDS011;204;48.942;9.256;2022-10-14T00:50:14;24.25;;;18.45;;
434;SDS011;204;48.942;9.256;2022-10-14T00:52:40;19.27;;;18.17;;
434;SDS011;204;48.942;9.256;2022-10-14T00:55:09;17.83;;;16.85;;
434;SDS011;204;48.942;9.256;2022-10-14T00:57:38;21.73;;;19.35;;
434;SDS011;204;48.942;9.256;2022-10-14T01:00:08;23.53;;;18.33;;
434;SDS011;204;48.942;9.256;2022-10-14T01:02:36;20.02;;;16.52;;
434;SDS011;204;48.942;9.256;2022-10-14T01:05:02;20.60;;;17.47;;
434;SDS011;204;48.942;9.256;2022-10-14T01:10:08;18.52;;;16.10;;
434;SDS011;204;48.942;9.256;2022-10-14T01:16:02;18.40;;;17.50;;
434;SDS011;204;48.942;9.256;2022-10-14T01:21:08;21.02;;;17.58;;
434;SDS011;204;48.942;9.256;2022-10-14T01:32:14;17.08;;;16.17;;
434;SDS011;204;48.942;9.256;2022-10-14T01:34:45;18.98;;;16.70;;
434;SDS011;204;48.942;9.256;2022-10-14T01:37:18;19.17;;;15.98;;
434;SDS011;204;48.942;9.256;2022-10-14T01:39:49;19.10;;;15.95;;
434;SDS011;204;48.942;9.256;2022-10-14T01:42:21;18.40;;;17.50;;
434;SDS011;204;48.942;9.256;2022-10-14T01:44:51;18.23;;;16.10;;
434;SDS011;204;48.942;9.256;2022-10-14T01:47:22;17.40;;;16.17;;
434;SDS011;204;48.942;9.256;2022-10-14T01:49:56;19.30;;;16.30;;
434;SDS011;204;48.942;9.256;2022-10-14T01:52:25;18.02;;;16.45;;
434;SDS011;204;48.942;9.256;2022-10-14T01:54:58;23.95;;;17.30;;
434;SDS011;204;48.942;9.256;2022-10-14T01:57:28;18.80;;;16.45;;
434;SDS011;204;48.942;9.256;2022-10-14T01:59:57;18.05;;;16.55;;
434;SDS011;204;48.942;9.256;2022-10-14T02:02:23;20.38;;;17.50;;
434;SDS011;204;48.942;9.256;2022-10-14T02:04:49;18.27;;;15.50;;
434;SDS011;204;48.942;9.256;2022-10-14T02:07:17;20.85;;;15.55;;
434;SDS011;204;48.942;9.256;2022-10-14T02:15:54;18.92;;;15.65;;
434;SDS011;204;48.942;9.256;2022-10-14T02:18:47;17.55;;;16.02;;
434;SDS011;204;48.942;9.256;2022-10-14T02:21:47;17.35;;;15.63;;
434;SDS011;204;48.942;9.256;2022-10-14T02:26:52;16.90;;;15.10;;
434;SDS011;204;48.942;9.256;2022-10-14T02:29:21;19.70;;;16.88;;
434;SDS011;204;48.942;9.256;2022-10-14T02:31:48;17.33;;;15.48;;
434;SDS011;204;48.942;9.256;2022-10-14T02:34:17;16.90;;;15.85;;
434;SDS011;204;48.942;9.256;2022-10-14T02:36:45;19.42;;;16.70;;
434;SDS011;204;48.942;9.256;2022-10-14T02:39:13;17.10;;;15.77;;
434;SDS011;204;48.942;9.256;2022-10-14T02:41:44;17.75;;;15.75;;
434;SDS011;204;48.942;9.256;2022-10-14T02:44:10;21.40;;;15.13;;
434;SDS011;204;48.942;9.256;2022-10-14T02:46:37;15.97;;;13.60;;
434;SDS011;204;48.942;9.256;2022-10-14T02:49:04;14.10;;;13.40;;
434;SDS011;204;48.942;9.256;2022-10-14T02:51:30;14.37;;;12.97;;
434;SDS011;204;48.942;9.256;2022-10-14T02:53:55;13.77;;;12.00;;
434;SDS011;204;48.942;9.256;2022-10-14T02:56:21;12.70;;;11.70;;
434;SDS011;204;48.942;9.256;2022-10-14T02:58:47;11.47;;;10.87;;
434;SDS011;204;48.942;9.256;2022-10-14T03:01:13;13.90;;;11.53;;
434;SDS011;204;48.942;9.256;2022-10-14T03:03:38;9.00;;;8.50;;
434;SDS011;204;48.942;9.256;2022-10-14T03:06:04;10.40;;;9.90;;
434;SDS011;204;48.942;9.256;2022-10-14T03:08:30;10.67;;;9.23;;
434;SDS011;204;48.942;9.256;2022-10-14T03:10:55;11.03;;;10.30;;
434;SDS011;204;48.942;9.256;2022-10-14T03:13:21;9.77;;;9.27;;
434;SDS011;204;48.942;9.256;2022-10-14T03:15:47;11.83;;;9.77;;
434;SDS011;204;48.942;9.256;2022-10-14T03:18:14;11.10;;;8.90;;
434;SDS011;204;48.942;9.256;2022-10-14T03:20:42;11.63;;;9.52;;
434;SDS011;204;48.942;9.256;2022-10-14T03:23:08;13.48;;;8.18;;
434;SDS011;204;48.942;9.256;2022-10-14T03:25:34;10.40;;;8.43;;
434;SDS011;204;48.942;9.256;2022-10-14T03:28:00;7.50;;;7.10;;
434;SDS011;204;48.942;9.256;2022-10-14T03:30:25;8.00;;;7.60;;
434;SDS011;204;48.942;9.256;2022-10-14T03:32:51;9.50;;;7.90;;
434;SDS011;204;48.942;9.256;2022-10-14T03:35:16;9.40;;;8.10;;
434;SDS011;204;48.942;9.256;2022-10-14T03:37:42;9.80;;;8.70;;
434;SDS011;204;48.942;9.256;2022-10-14T03:40:08;10.33;;;8.53;;
434;SDS011;204;48.942;9.256;2022-10-14T03:42:34;8.88;;;8.38;;
434;SDS011;204;48.942;9.256;2022-10-14T03:44:59;9.47;;;8.67;;
434;SDS011;204;48.942;9.256;2022-10-14T03:47:25;9.90;;;9.33;;
434;SDS011;204;48.942;9.256;2022-10-14T03:49:51;11.30;;;10.23;;
434;SDS011;204;48.942;9.256;2022-10-14T03:52:16;14.00;;;10.47;;
434;SDS011;204;48.942;9.256;2022-10-14T03:54:42;9.57;;;8.97;;
434;SDS011;204;48.942;9.256;2022-10-14T03:57:07;9.93;;;9.33;;
434;SDS011;204;48.942;9.256;2022-10-14T03:59:33;11.73;;;9.17;;
434;SDS011;204;48.942;9.256;2022-10-14T04:01:59;10.63;;;10.03;;
434;SDS011;204;48.942;9.256;2022-10-14T04:04:24;9.50;;;9.00;;
434;SDS011;204;48.942;9.256;2022-10-14T04:06:50;11.37;;;10.77;;
434;SDS011;204;48.942;9.256;2022-10-14T04:09:15;12.00;;;10.93;;
434;SDS011;204;48.942;9.256;2022-10-14T04:11:41;10.80;;;9.83;;
434;SDS011;204;48.942;9.256;2022-10-14T04:14:06;12.80;;;10.50;;
434;SDS011;204;48.942;9.256;2022-10-14T04:16:32;12.20;;;10.47;;
434;SDS011;204;48.942;9.256;2022-10-14T04:18:58;13.80;;;11.97;;
434;SDS011;204;48.942;9.256;2022-10-14T04:21:23;11.90;;;10.70;;
434;SDS011;204;48.942;9.256;2022-10-14T04:23:49;11.83;;;10.57;;
434;SDS011;204;48.942;9.256;2022-10-14T04:26:15;14.15;;;11.60;;
434;SDS011;204;48.942;9.256;2022-10-14T04:28:41;14.00;;;10.43;;
434;SDS011;204;48.942;9.256;2022-10-14T04:31:07;10.97;;;10.37;;
434;SDS011;204;48.942;9.256;2022-10-14T04:33:33;11.50;;;10.90;;
434;SDS011;204;48.942;9.256;2022-10-14T04:35:59;10.83;;;9.67;;
434;SDS011;204;48.942;9.256;2022-10-14T04:38:27;14.13;;;10.30;;
434;SDS011;204;48.942;9.256;2022-10-14T04:40:53;12.50;;;10.35;;
434;SDS011;204;48.942;9.256;2022-10-14T04:43:19;13.17;;;10.47;;
434;SDS011;204;48.942;9.256;2022-10-14T04:45:45;10.90;;;9.77;;
434;SDS011;204;48.942;9.256;2022-10-14T04:48:11;10.70;;;9.53;;
434;SDS011;204;48.942;9.256;2022-10-14T04:50:37;11.47;;;10.27;;
434;SDS011;204;48.942;9.256;2022-10-14T04:53:02;12.47;;;10.30;;
434;SDS011;204;48.942;9.256;2022-10-14T04:55:28;12.13;;;9.90;;
434;SDS011;204;48.942;9.256;2022-10-14T04:57:53;11.20;;;9.87;;
434;SDS011;204;48.942;9.256;2022-10-14T05:00:19;12.50;;;11.40;;
434;SDS011;204;48.942;9.256;2022-10-14T05:02:44;11.63;;;11.00;;
434;SDS011;204;48.942;9.256;2022-10-14T05:05:10;13.77;;;11.67;;
434;SDS011;204;48.942;9.256;2022-10-14T05:07:36;11.47;;;10.87;;
434;SDS011;204;48.942;9.256;2022-10-14T05:10:02;14.77;;;12.10;;
434;SDS011;204;48.942;9.256;2022-10-14T05:12:28;14.98;;;11.50;;
434;SDS011;204;48.942;9.256;2022-10-14T05:14:54;14.52;;;10.45;;
434;SDS011;204;48.942;9.256;2022-10-14T05:17:20;12.23;;;10.90;;
434;SDS011;204;48.942;9.256;2022-10-14T05:19:46;13.48;;;11.60;;
434;SDS011;204;48.942;9.256;2022-10-14T05:22:12;13.47;;;11.70;;
434;SDS011;204;48.942;9.256;2022-10-14T05:24:38;13.43;;;11.67;;
434;SDS011;204;48.942;9.256;2022-10-14T05:27:03;13.63;;;11.70;;
434;SDS011;204;48.942;9.256;2022-10-14T05:29:29;14.13;;;11.27;;
434;SDS011;204;48.942;9.256;2022-10-14T05:31:54;11.80;;;11.20;;
434;SDS011;204;48.942;9.256;2022-10-14T05:34:21;11.20;;;10.60;;
434;SDS011;204;48.942;9.256;2022-10-14T05:36:47;11.07;;;10.43;;
434;SDS011;204;48.942;9.256;2022-10-14T05:39:12;10.93;;;10.33;;
434;SDS011;204;48.942;9.256;2022-10-14T05:41:38;14.90;;;11.17;;
434;SDS011;204;48.942;9.256;2022-10-14T05:44:04;11.40;;;10.60;;
434;SDS011;204;48.942;9.256;2022-10-14T05:46:30;14.02;;;11.20;;
434;SDS011;204;48.942;9.256;2022-10-14T05:48:56;12.37;;;11.17;;
434;SDS011;204;48.942;9.256;2022-10-14T05:51:24;10.68;;;10.07;;
434;SDS011;204;48.942;9.256;2022-10-14T05:53:50;12.50;;;10.25;;
434;SDS011;204;48.942;9.256;2022-10-14T05:56:15;12.13;;;10.03;;
434;SDS011;204;48.942;9.256;2022-10-14T05:58:41;11.33;;;10.10;;
434;SDS011;204;48.942;9.256;2022-10-14T06:01:07;10.23;;;9.73;;
434;SDS011;204;48.942;9.256;2022-10-14T06:03:34;10.38;;;9.88;;
434;SDS011;204;48.942;9.256;2022-10-14T06:06:00;12.40;;;9.83;;
434;SDS011;204;48.942;9.256;2022-10-14T06:08:26;10.40;;;9.60;;
434;SDS011;204;48.942;9.256;2022-10-14T06:10:53;11.25;;;9.85;;
434;SDS011;204;48.942;9.256;2022-10-14T06:13:19;11.67;;;9.40;;
434;SDS011;204;48.942;9.256;2022-10-14T06:15:45;11.90;;;10.30;;
434;SDS011;204;48.942;9.256;2022-10-14T06:18:11;11.00;;;9.90;;
434;SDS011;204;48.942;9.256;2022-10-14T06:20:37;14.70;;;9.17;;
434;SDS011;204;48.942;9.256;2022-10-14T06:23:02;11.17;;;9.00;;
434;SDS011;204;48.942;9.256;2022-10-14T06:25:28;9.97;;;9.27;;
434;SDS011;204;48.942;9.256;2022-10-14T06:27:55;11.98;;;8.85;;
434;SDS011;204;48.942;9.256;2022-10-14T06:30:26;10.55;;;9.98;;
434;SDS011;204;48.942;9.256;2022-10-14T06:32:52;11.43;;;8.73;;
434;SDS011;204;48.942;9.256;2022-10-14T06:35:18;11.17;;;7.73;;
434;SDS011;204;48.942;9.256;2022-10-14T06:37:44;9.60;;;8.38;;
434;SDS011;204;48.942;9.256;2022-10-14T06:40:10;9.32;;;8.82;;
434;SDS011;204;48.942;9.256;2022-10-14T06:42:36;11.73;;;9.20;;
434;SDS011;204;48.942;9.256;2022-10-14T06:45:02;8.10;;;7.68;;
434;SDS011;204;48.942;9.256;2022-10-14T06:47:29;11.98;;;9.20;;
434;SDS011;204;48.942;9.256;2022-10-14T06:49:55;9.07;;;8.57;;
434;SDS011;204;48.942;9.256;2022-10-14T06:52:21;12.23;;;9.70;;
434;SDS011;204;48.942;9.256;2022-10-14T06:54:47;9.83;;;9.37;;
434;SDS011;204;48.942;9.256;2022-10-14T06:57:12;9.67;;;8.70;;
434;SDS011;204;48.942;9.256;2022-10-14T06:59:38;11.53;;;8.87;;
434;SDS011;204;48.942;9.256;2022-10-14T07:02:03;10.23;;;8.57;;
434;SDS011;204;48.942;9.256;2022-10-14T07:04:29;9.43;;;8.30;;
434;SDS011;204;48.942;9.256;2022-10-14T07:06:54;13.10;;;8.13;;
434;SDS011;204;48.942;9.256;2022-10-14T07:09:22;12.77;;;8.93;;
434;SDS011;204;48.942;9.256;2022-10-14T07:11:48;8.70;;;7.70;;
434;SDS011;204;48.942;9.256;2022-10-14T07:14:14;9.77;;;8.43;;
434;SDS011;204;48.942;9.256;2022-10-14T07:16:41;9.30;;;7.53;;
434;SDS011;204;48.942;9.256;2022-10-14T07:19:07;7.22;;;6.82;;
434;SDS011;204;48.942;9.256;2022-10-14T07:21:33;8.87;;;8.37;;
434;SDS011;204;48.942;9.256;2022-10-14T07:23:59;7.80;;;7.40;;
434;SDS011;204;48.942;9.256;2022-10-14T07:26:24;11.17;;;7.87;;
434;SDS011;204;48.942;9.256;2022-10-14T07:28:50;10.20;;;8.73;;
434;SDS011;204;48.942;9.256;2022-10-14T07:31:16;13.03;;;9.27;;
434;SDS011;204;48.942;9.256;2022-10-14T07:33:41;9.83;;;8.97;;
434;SDS011;204;48.942;9.256;2022-10-14T07:36:09;11.63;;;8.80;;
434;SDS011;204;48.942;9.256;2022-10-14T07:38:36;9.55;;;8.25;;
434;SDS011;204;48.942;9.256;2022-10-14T07:41:04;9.88;;;9.38;;
434;SDS011;204;48.942;9.256;2022-10-14T07:43:33;9.80;;;8.80;;
434;SDS011;204;48.942;9.256;2022-10-14T07:45:59;10.10;;;9.13;;
434;SDS011;204;48.942;9.256;2022-10-14T07:48:28;11.55;;;8.70;;
434;SDS011;204;48.942;9.256;2022-10-14T07:50:54;10.60;;;9.23;;
434;SDS011;204;48.942;9.256;2022-10-14T07:53:20;10.00;;;9.50;;
434;SDS011;204;48.942;9.256;2022-10-14T07:55:46;14.15;;;9.23;;
434;SDS011;204;48.942;9.256;2022-10-14T07:58:20;8.30;;;7.88;;
434;SDS011;204;48.942;9.256;2022-10-14T08:00:47;8.07;;;7.68;;
434;SDS011;204;48.942;9.256;2022-10-14T08:03:14;10.98;;;8.60;;
434;SDS011;204;48.942;9.256;2022-10-14T08:05:39;7.72;;;7.32;;
434;SDS011;204;48.942;9.256;2022-10-14T08:08:06;8.97;;;8.50;;
434;SDS011;204;48.942;9.256;2022-10-14T08:10:31;8.07;;;7.73;;
434;SDS011;204;48.942;9.256;2022-10-14T08:12:57;10.27;;;9.23;;
434;SDS011;204;48.942;9.256;2022-10-14T08:15:23;8.37;;;7.93;;
434;SDS011;204;48.942;9.256;2022-10-14T08:17:52;8.90;;;8.00;;
434;SDS011;204;48.942;9.256;2022-10-14T08:20:18;9.90;;;7.40;;
434;SDS011;204;48.942;9.256;2022-10-14T08:22:44;10.50;;;8.27;;
434;SDS011;204;48.942;9.256;2022-10-14T08:25:10;8.10;;;7.70;;
434;SDS011;204;48.942;9.256;2022-10-14T08:27:35;7.37;;;7.00;;
434;SDS011;204;48.942;9.256;2022-10-14T08:30:01;7.73;;;6.50;;
434;SDS011;204;48.942;9.256;2022-10-14T08:32:27;7.57;;;7.17;;
434;SDS011;204;48.942;9.256;2022-10-14T08:34:53;9.13;;;7.67;;
434;SDS011;204;48.942;9.256;2022-10-14T08:37:19;7.83;;;7.50;;
434;SDS011;204;48.942;9.256;2022-10-14T08:39:45;9.53;;;9.03;;
434;SDS011;204;48.942;9.256;2022-10-14T08:45:04;6.80;;;6.17;;
434;SDS011;204;48.942;9.256;2022-10-14T08:47:38;10.20;;;7.00;;
434;SDS011;204;48.942;9.256;2022-10-14T08:50:15;7.63;;;6.97;;
434;SDS011;204;48.942;9.256;2022-10-14T08:53:04;7.37;;;6.13;;
434;SDS011;204;48.942;9.256;2022-10-14T08:55:43;7.00;;;6.60;;
434;SDS011;204;48.942;9.256;2022-10-14T09:00:51;8.50;;;6.20;;
434;SDS011;204;48.942;9.256;2022-10-14T09:03:21;8.40;;;7.00;;
434;SDS011;204;48.942;9.256;2022-10-14T09:05:58;6.87;;;5.97;;
434;SDS011;204;48.942;9.256;2022-10-14T09:08:27;8.03;;;6.37;;
434;SDS011;204;48.942;9.256;2022-10-14T09:10:59;8.20;;;6.40;;
434;SDS011;204;48.942;9.256;2022-10-14T09:13:33;6.57;;;6.07;;
434;SDS011;204;48.942;9.256;2022-10-14T09:16:05;6.27;;;5.67;;
434;SDS011;204;48.942;9.256;2022-10-14T09:18:48;9.20;;;6.10;;
434;SDS011;204;48.942;9.256;2022-10-14T09:23:45;7.23;;;5.00;;
434;SDS011;204;48.942;9.256;2022-10-14T09:26:13;9.10;;;5.93;;
434;SDS011;204;48.942;9.256;2022-10-14T09:28:43;5.73;;;5.27;;
434;SDS011;204;48.942;9.256;2022-10-14T09:31:10;8.20;;;5.83;;
434;SDS011;204;48.942;9.256;2022-10-14T09:33:37;6.50;;;6.03;;
434;SDS011;204;48.942;9.256;2022-10-14T09:36:26;6.63;;;5.43;;
434;SDS011;204;48.942;9.256;2022-10-14T09:38:51;6.00;;;5.70;;
434;SDS011;204;48.942;9.256;2022-10-14T09:41:21;5.97;;;5.67;;
434;SDS011;204;48.942;9.256;2022-10-14T09:46:56;5.70;;;5.23;;
434;SDS011;204;48.942;9.256;2022-10-14T09:49:45;5.80;;;4.63;;
434;SDS011;204;48.942;9.256;2022-10-14T09:52:20;5.27;;;4.70;;
434;SDS011;204;48.942;9.256;2022-10-14T09:54:52;5.17;;;4.87;;
434;SDS011;204;48.942;9.256;2022-10-14T09:57:20;5.73;;;5.27;;
434;SDS011;204;48.942;9.256;2022-10-14T09:59:54;6.00;;;5.30;;
434;SDS011;204;48.942;9.256;2022-10-14T10:02:25;5.10;;;4.80;;
434;SDS011;204;48.942;9.256;2022-10-14T10:05:49;8.40;;;5.20;;
434;SDS011;204;48.942;9.256;2022-10-14T10:10:38;5.40;;;5.10;;
434;SDS011;204;48.942;9.256;2022-10-14T10:13:13;4.67;;;4.37;;
434;SDS011;204;48.942;9.256;2022-10-14T10:15:56;6.50;;;4.63;;
434;SDS011;204;48.942;9.256;2022-10-14T10:18:23;6.93;;;5.27;;
434;SDS011;204;48.942;9.256;2022-10-14T10:21:14;7.20;;;5.53;;
434;SDS011;204;48.942;9.256;2022-10-14T10:23:49;7.63;;;5.07;;
434;SDS011;204;48.942;9.256;2022-10-14T10:26:21;4.70;;;4.40;;
434;SDS011;204;48.942;9.256;2022-10-14T10:28:53;6.77;;;5.47;;
434;SDS011;204;48.942;9.256;2022-10-14T10:34:19;7.57;;;5.63;;
434;SDS011;204;48.942;9.256;2022-10-14T10:45:37;7.23;;;5.57;;
434;SDS011;204;48.942;9.256;2022-10-14T10:48:18;5.43;;;5.13;;
434;SDS011;204;48.942;9.256;2022-10-14T10:50:50;6.50;;;5.20;;
434;SDS011;204;48.942;9.256;2022-10-14T10:59:19;6.63;;;5.00;;
434;SDS011;204;48.942;9.256;2022-10-14T11:04:43;6.60;;;6.20;;
434;SDS011;204;48.942;9.256;2022-10-14T11:13:16;5.83;;;5.53;;
434;SDS011;204;48.942;9.256;2022-10-14T11:18:55;6.07;;;4.90;;
434;SDS011;204;48.942;9.256;2022-10-14T11:45:50;5.40;;;5.10;;
434;SDS011;204;48.942;9.256;2022-10-14T11:48:22;5.77;;;5.47;;
434;SDS011;204;48.942;9.256;2022-10-14T11:54:13;8.67;;;6.13;;
434;SDS011;204;48.942;9.256;2022-10-14T12:03:18;7.10;;;5.40;;
434;SDS011;204;48.942;9.256;2022-10-14T12:08:53;6.27;;;5.47;;
434;SDS011;204;48.942;9.256;2022-10-14T12:14:34;6.23;;;5.87;;
434;SDS011;204;48.942;9.256;2022-10-14T12:17:10;8.07;;;5.50;;
434;SDS011;204;48.942;9.256;2022-10-14T12:19:45;6.33;;;5.97;;
434;SDS011;204;48.942;9.256;2022-10-14T12:22:16;6.40;;;6.00;;
434;SDS011;204;48.942;9.256;2022-10-14T12:25:04;7.37;;;6.00;;
434;SDS011;204;48.942;9.256;2022-10-14T12:27:35;9.43;;;8.40;;
434;SDS011;204;48.942;9.256;2022-10-14T12:30:02;10.00;;;7.47;;
434;SDS011;204;48.942;9.256;2022-10-14T12:32:29;5.57;;;5.00;;
434;SDS011;204;48.942;9.256;2022-10-14T12:34:59;9.43;;;4.33;;
434;SDS011;204;48.942;9.256;2022-10-14T12:45:21;5.70;;;4.03;;
434;SDS011;204;48.942;9.256;2022-10-14T12:50:30;6.80;;;5.77;;
434;SDS011;204;48.942;9.256;2022-10-14T12:53:01;5.80;;;4.97;;
434;SDS011;204;48.942;9.256;2022-10-14T12:55:30;10.30;;;5.40;;
434;SDS011;204;48.942;9.256;2022-10-14T12:58:03;6.43;;;6.03;;
434;SDS011;204;48.942;9.256;2022-10-14T13:00:35;9.00;;;7.00;;
434;SDS011;204;48.942;9.256;2022-10-14T13:03:03;5.87;;;5.47;;
434;SDS011;204;48.942;9.256;2022-10-14T13:05:42;5.67;;;5.20;;
434;SDS011;204;48.942;9.256;2022-10-14T13:16:02;6.93;;;6.07;;
434;SDS011;204;48.942;9.256;2022-10-14T13:18:32;9.03;;;6.13;;
434;SDS011;204;48.942;9.256;2022-10-14T13:21:08;6.00;;;5.80;;
434;SDS011;204;48.942;9.256;2022-10-14T13:23:45;6.77;;;5.80;;
434;SDS011;204;48.942;9.256;2022-10-14T13:34:46;6.70;;;4.93;;
434;SDS011;204;48.942;9.256;2022-10-14T13:43:23;6.40;;;3.87;;
434;SDS011;204;48.942;9.256;2022-10-14T13:48:45;6.00;;;4.20;;
434;SDS011;204;48.942;9.256;2022-10-14T13:56:26;8.93;;;5.37;;
434;SDS011;204;48.942;9.256;2022-10-14T13:58:54;4.43;;;4.17;;
434;SDS011;204;48.942;9.256;2022-10-14T14:01:21;6.33;;;4.43;;
434;SDS011;204;48.942;9.256;2022-10-14T14:03:50;6.47;;;4.70;;
434;SDS011;204;48.942;9.256;2022-10-14T14:06:19;7.07;;;6.07;;
434;SDS011;204;48.942;9.256;2022-10-14T14:08:48;4.57;;;4.17;;
434;SDS011;204;48.942;9.256;2022-10-14T14:11:26;3.80;;;3.53;;
434;SDS011;204;48.942;9.256;2022-10-14T14:19:21;2.00;;;1.90;;
434;SDS011;204;48.942;9.256;2022-10-14T14:24:46;2.17;;;1.70;;
434;SDS011;204;48.942;9.256;2022-10-14T14:27:16;1.30;;;1.10;;
434;SDS011;204;48.942;9.256;2022-10-14T14:29:44;1.30;;;1.20;;
434;SDS011;204;48.942;9.256;2022-10-14T14:32:16;1.63;;;1.40;;
434;SDS011;204;48.942;9.256;2022-10-14T14:34:47;1.17;;;1.07;;
434;SDS011;204;48.942;9.256;2022-10-14T14:37:15;1.27;;;1.23;;
434;SDS011;204;48.942;9.256;2022-10-14T14:39:54;1.60;;;1.50;;
434;SDS011;204;48.942;9.256;2022-10-14T14:42:54;10.33;;;1.60;;
434;SDS011;204;48.942;9.256;2022-10-14T14:45:23;1.37;;;1.30;;
434;SDS011;204;48.942;9.256;2022-10-14T14:47:52;3.90;;;1.50;;
434;SDS011;204;48.942;9.256;2022-10-14T14:50:22;4.43;;;1.63;;
434;SDS011;204;48.942;9.256;2022-10-14T14:52:58;1.77;;;1.60;;
434;SDS011;204;48.942;9.256;2022-10-14T14:58:04;1.53;;;1.13;;
434;SDS011;204;48.942;9.256;2022-10-14T15:00:43;3.40;;;1.17;;
434;SDS011;204;48.942;9.256;2022-10-14T15:03:10;2.10;;;1.90;;
434;SDS011;204;48.942;9.256;2022-10-14T15:05:35;2.90;;;2.47;;
434;SDS011;204;48.942;9.256;2022-10-14T15:08:01;3.13;;;2.47;;
434;SDS011;204;48.942;9.256;2022-10-14T15:10:28;1.93;;;1.47;;
434;SDS011;204;48.942;9.256;2022-10-14T15:12:56;2.60;;;1.87;;
434;SDS011;204;48.942;9.256;2022-10-14T15:15:24;2.73;;;2.43;;
434;SDS011;204;48.942;9.256;2022-10-14T15:18:03;1.50;;;1.40;;
434;SDS011;204;48.942;9.256;2022-10-14T15:20:37;2.37;;;2.17;;
434;SDS011;204;48.942;9.256;2022-10-14T15:26:03;2.17;;;1.30;;
434;SDS011;204;48.942;9.256;2022-10-14T15:28:45;4.57;;;1.50;;
434;SDS011;204;48.942;9.256;2022-10-14T15:31:13;1.73;;;1.37;;
434;SDS011;204;48.942;9.256;2022-10-14T15:33:39;2.37;;;1.40;;
434;SDS011;204;48.942;9.256;2022-10-14T15:36:08;2.27;;;1.23;;
434;SDS011;204;48.942;9.256;2022-10-14T15:38:35;1.47;;;1.37;;
434;SDS011;204;48.942;9.256;2022-10-14T15:41:02;2.33;;;2.13;;
434;SDS011;204;48.942;9.256;2022-10-14T15:43:28;1.90;;;1.83;;
434;SDS011;204;48.942;9.256;2022-10-14T15:45:54;2.30;;;2.10;;
434;SDS011;204;48.942;9.256;2022-10-14T15:48:40;1.90;;;1.80;;
434;SDS011;204;48.942;9.256;2022-10-14T15:51:14;2.20;;;2.00;;
434;SDS011;204;48.942;9.256;2022-10-14T15:53:41;2.17;;;1.50;;
434;SDS011;204;48.942;9.256;2022-10-14T15:56:07;1.60;;;1.50;;
434;SDS011;204;48.942;9.256;2022-10-14T15:58:34;1.67;;;1.57;;
434;SDS011;204;48.942;9.256;2022-10-14T16:01:00;9.47;;;2.23;;
434;SDS011;204;48.942;9.256;2022-10-14T16:03:27;1.77;;;1.67;;
434;SDS011;204;48.942;9.256;2022-10-14T16:05:53;3.93;;;2.50;;
434;SDS011;204;48.942;9.256;2022-10-14T16:08:18;2.30;;;1.63;;
434;SDS011;204;48.942;9.256;2022-10-14T16:10:44;2.03;;;1.80;;
434;SDS011;204;48.942;9.256;2022-10-14T16:13:11;3.33;;;1.73;;
434;SDS011;204;48.942;9.256;2022-10-14T16:15:53;2.80;;;2.03;;
434;SDS011;204;48.942;9.256;2022-10-14T16:18:22;4.13;;;2.17;;
434;SDS011;204;48.942;9.256;2022-10-14T16:20:49;4.60;;;1.87;;
434;SDS011;204;48.942;9.256;2022-10-14T16:23:15;3.53;;;2.30;;
434;SDS011;204;48.942;9.256;2022-10-14T16:25:43;5.27;;;3.57;;
434;SDS011;204;48.942;9.256;2022-10-14T16:28:11;3.73;;;3.20;;
434;SDS011;204;48.942;9.256;2022-10-14T16:30:38;4.50;;;3.20;;
434;SDS011;204;48.942;9.256;2022-10-14T16:33:08;5.07;;;4.23;;
434;SDS011;204;48.942;9.256;2022-10-14T16:35:34;4.20;;;3.63;;
434;SDS011;204;48.942;9.256;2022-10-14T16:38:00;3.63;;;3.43;;
434;SDS011;204;48.942;9.256;2022-10-14T16:40:25;3.00;;;2.40;;
434;SDS011;204;48.942;9.256;2022-10-14T16:42:51;2.87;;;2.67;;
434;SDS011;204;48.942;9.256;2022-10-14T16:45:17;6.20;;;2.30;;
434;SDS011;204;48.942;9.256;2022-10-14T16:47:42;3.20;;;2.60;;
434;SDS011;204;48.942;9.256;2022-10-14T16:50:08;2.67;;;2.47;;
434;SDS011;204;48.942;9.256;2022-10-14T16:52:34;3.13;;;2.93;;
434;SDS011;204;48.942;9.256;2022-10-14T16:55:19;2.80;;;2.50;;
434;SDS011;204;48.942;9.256;2022-10-14T16:57:45;2.47;;;2.27;;
434;SDS011;204;48.942;9.256;2022-10-14T17:00:12;3.07;;;2.87;;
434;SDS011;204;48.942;9.256;2022-10-14T17:02:39;3.57;;;2.63;;
434;SDS011;204;48.942;9.256;2022-10-14T17:05:05;2.70;;;2.37;;
434;SDS011;204;48.942;9.256;2022-10-14T17:07:31;2.03;;;1.90;;
434;SDS011;204;48.942;9.256;2022-10-14T17:09:57;2.40;;;1.83;;
434;SDS011;204;48.942;9.256;2022-10-14T17:12:23;3.37;;;2.80;;
434;SDS011;204;48.942;9.256;2022-10-14T17:14:49;6.40;;;3.00;;
434;SDS011;204;48.942;9.256;2022-10-14T17:17:15;6.43;;;2.90;;
434;SDS011;204;48.942;9.256;2022-10-14T17:19:41;2.50;;;2.30;;
434;SDS011;204;48.942;9.256;2022-10-14T17:22:07;3.33;;;2.40;;
434;SDS011;204;48.942;9.256;2022-10-14T17:24:33;3.83;;;2.30;;
434;SDS011;204;48.942;9.256;2022-10-14T17:26:58;2.87;;;2.67;;
434;SDS011;204;48.942;9.256;2022-10-14T17:29:28;2.40;;;2.20;;
434;SDS011;204;48.942;9.256;2022-10-14T17:31:54;3.30;;;2.90;;
434;SDS011;204;48.942;9.256;2022-10-14T17:34:19;5.30;;;2.50;;
434;SDS011;204;48.942;9.256;2022-10-14T17:36:45;2.60;;;2.40;;
434;SDS011;204;48.942;9.256;2022-10-14T17:39:10;3.50;;;3.30;;
434;SDS011;204;48.942;9.256;2022-10-14T17:41:38;4.13;;;2.95;;
434;SDS011;204;48.942;9.256;2022-10-14T17:44:03;2.80;;;2.60;;
434;SDS011;204;48.942;9.256;2022-10-14T17:46:29;3.83;;;3.37;;
434;SDS011;204;48.942;9.256;2022-10-14T17:48:56;9.90;;;4.20;;
434;SDS011;204;48.942;9.256;2022-10-14T17:51:24;6.37;;;5.53;;
434;SDS011;204;48.942;9.256;2022-10-14T17:53:52;8.23;;;7.80;;
434;SDS011;204;48.942;9.256;2022-10-14T17:56:18;6.27;;;5.93;;
434;SDS011;204;48.942;9.256;2022-10-14T17:58:44;6.33;;;4.53;;
434;SDS011;204;48.942;9.256;2022-10-14T18:01:13;6.23;;;4.33;;
434;SDS011;204;48.942;9.256;2022-10-14T18:03:40;4.78;;;4.25;;
434;SDS011;204;48.942;9.256;2022-10-14T18:06:11;4.50;;;4.20;;
434;SDS011;204;48.942;9.256;2022-10-14T18:08:37;5.90;;;5.60;;
434;SDS011;204;48.942;9.256;2022-10-14T18:11:07;4.90;;;4.60;;
434;SDS011;204;48.942;9.256;2022-10-14T18:13:34;5.07;;;4.67;;
434;SDS011;204;48.942;9.256;2022-10-14T18:16:03;10.07;;;8.00;;
434;SDS011;204;48.942;9.256;2022-10-14T18:18:33;4.88;;;4.57;;
434;SDS011;204;48.942;9.256;2022-10-14T18:20:59;3.80;;;3.60;;
434;SDS011;204;48.942;9.256;2022-10-14T18:23:36;9.77;;;5.60;;
434;SDS011;204;48.942;9.256;2022-10-14T18:26:05;6.13;;;5.83;;
434;SDS011;204;48.942;9.256;2022-10-14T18:28:36;4.75;;;4.45;;